createdAt,value
2023-01-20T00:01:43.658Z,101044.41
2023-01-20T00:04:11.208Z,101056.75
2023-01-20T00:06:39.202Z,101056.00
2023-01-20T00:09:07.193Z,101054.00
2023-01-20T00:11:34.898Z,101034.91
2023-01-20T00:14:03.563Z,101056.44
2023-01-20T00:16:32.239Z,101053.09
2023-01-20T00:18:59.971Z,101064.13
2023-01-20T00:21:27.546Z,101060.88
2023-01-20T00:23:55.341Z,101061.06
2023-01-20T00:26:25.579Z,101070.06
2023-01-20T00:28:57.723Z,101074.63
2023-01-20T00:31:32.059Z,101069.72
2023-01-20T00:34:01.558Z,101062.72
2023-01-20T00:36:31.567Z,101050.41
2023-01-20T00:38:59.561Z,101061.13
2023-01-20T00:41:27.132Z,101055.53
2023-01-20T00:43:54.653Z,101070.66
2023-01-20T00:46:23.264Z,101072.50
2023-01-20T00:48:50.856Z,101066.63
2023-01-20T00:51:18.431Z,101067.38
2023-01-20T00:53:46.021Z,101076.31
2023-01-20T00:56:13.612Z,101068.44
2023-01-20T00:58:44.139Z,101079.56
2023-01-20T01:01:12.347Z,101090.66
2023-01-20T01:03:40.207Z,101083.53
2023-01-20T01:06:25.705Z,101088.41
2023-01-20T01:08:53.217Z,101084.97
2023-01-20T01:11:20.746Z,101092.22
2023-01-20T01:13:48.220Z,101095.00
2023-01-20T01:16:17.476Z,101089.53
2023-01-20T01:18:45.169Z,101095.63
2023-01-20T01:21:16.011Z,101098.25
2023-01-20T01:23:44.408Z,101099.00
2023-01-20T01:26:11.995Z,101098.50
2023-01-20T01:28:39.928Z,101104.59
2023-01-20T01:31:09.108Z,101110.59
2023-01-20T01:33:37.254Z,101109.50
2023-01-20T01:36:05.395Z,101114.63
2023-01-20T01:38:33.182Z,101106.63
2023-01-20T01:41:01.200Z,101113.25
2023-01-20T01:43:32.239Z,101116.50
2023-01-20T01:46:00.330Z,101126.63
2023-01-20T01:48:45.013Z,101125.25
2023-01-20T01:51:19.306Z,101122.75
2023-01-20T01:53:53.772Z,101124.41
2023-01-20T01:56:23.444Z,101129.53
2023-01-20T01:58:55.389Z,101126.38
2023-01-20T02:01:23.041Z,101133.25
2023-01-20T02:04:10.999Z,101129.88
2023-01-20T02:06:41.947Z,101134.31
2023-01-20T02:09:09.623Z,101125.31
2023-01-20T02:11:50.505Z,101126.28
2023-01-20T02:14:20.310Z,101121.78
2023-01-20T02:17:04.152Z,101124.41
2023-01-20T02:19:56.444Z,101119.50
2023-01-20T02:22:58.628Z,101124.41
2023-01-20T02:26:06.958Z,101126.63
2023-01-20T02:29:05.553Z,101125.59
2023-01-20T02:31:45.318Z,101132.88
2023-01-20T02:34:33.780Z,101126.56
2023-01-20T02:37:23.135Z,101112.16
2023-01-20T02:39:50.635Z,101123.25
2023-01-20T02:42:28.501Z,101121.44
2023-01-20T02:45:23.237Z,101119.59
2023-01-20T02:48:08.293Z,101122.13
2023-01-20T02:50:53.444Z,101124.69
2023-01-20T02:53:24.220Z,101128.63
2023-01-20T02:55:55.459Z,101121.03
2023-01-20T02:58:34.685Z,101126.88
2023-01-20T03:01:09.333Z,101127.50
2023-01-20T03:03:41.011Z,101133.63
2023-01-20T03:06:17.269Z,101131.03
2023-01-20T03:08:45.892Z,101132.16
2023-01-20T03:11:13.809Z,101142.38
2023-01-20T03:13:48.156Z,101139.88
2023-01-20T03:16:23.485Z,101132.28
2023-01-20T03:18:52.679Z,101138.88
2023-01-20T03:21:20.454Z,101130.28
2023-01-20T03:23:51.953Z,101138.00
2023-01-20T03:26:22.677Z,101138.63
2023-01-20T03:28:51.103Z,101141.50
2023-01-20T03:31:27.411Z,101136.31
2023-01-20T03:33:58.468Z,101139.00
2023-01-20T03:36:29.506Z,101128.06
2023-01-20T03:38:58.810Z,101125.53
2023-01-20T03:42:07.191Z,101135.75
2023-01-20T03:44:59.393Z,101137.41
2023-01-20T03:47:45.700Z,101144.38
2023-01-20T03:50:24.225Z,101130.50
2023-01-20T03:53:00.862Z,101137.88
2023-01-20T03:55:43.463Z,101137.63
2023-01-20T03:58:20.652Z,101140.25
2023-01-20T04:00:51.522Z,101140.25
2023-01-20T04:03:32.327Z,101143.72
2023-01-20T04:06:02.255Z,101156.50
2023-01-20T04:08:34.790Z,101148.00
2023-01-20T04:11:05.386Z,101151.03
2023-01-20T04:13:33.302Z,101156.91
2023-01-20T04:16:03.186Z,101155.84
2023-01-20T04:18:30.819Z,101155.72
2023-01-20T04:21:02.459Z,101151.22
2023-01-20T04:23:35.918Z,101153.84
2023-01-20T04:26:03.715Z,101163.53
2023-01-20T04:28:31.564Z,101155.44
2023-01-20T04:30:59.367Z,101160.69
2023-01-20T04:33:26.991Z,101152.22
2023-01-20T04:35:54.492Z,101162.50
2023-01-20T04:38:22.044Z,101166.56
2023-01-20T04:40:49.574Z,101165.69
2023-01-20T04:43:18.443Z,101169.19
2023-01-20T04:45:46.016Z,101171.06
2023-01-20T04:48:13.519Z,101179.44
2023-01-20T04:50:41.995Z,101174.56
2023-01-20T04:53:16.870Z,101173.09
2023-01-20T04:55:44.486Z,101177.69
2023-01-20T04:58:12.310Z,101180.09
2023-01-20T05:00:39.810Z,101172.81
2023-01-20T05:03:07.940Z,101177.31
2023-01-20T05:05:35.605Z,101171.31
2023-01-20T05:08:04.763Z,101177.38
2023-01-20T05:10:33.785Z,101183.31
2023-01-20T05:13:01.809Z,101188.69
2023-01-20T05:15:29.375Z,101181.81
2023-01-20T05:17:56.929Z,101187.06
2023-01-20T05:20:24.474Z,101183.69
2023-01-20T05:22:51.972Z,101187.25
2023-01-20T05:25:19.704Z,101190.13
2023-01-20T05:27:47.255Z,101181.28
2023-01-20T05:30:15.048Z,101188.00
2023-01-20T05:32:42.806Z,101195.94
2023-01-20T05:35:10.696Z,101195.50
2023-01-20T05:37:38.315Z,101190.00
2023-01-20T05:40:06.376Z,101190.69
2023-01-20T05:42:34.134Z,101192.69
2023-01-20T05:45:01.643Z,101184.75
2023-01-20T05:47:29.667Z,101190.97
2023-01-20T05:49:57.338Z,101184.75
2023-01-20T05:52:24.823Z,101202.00
2023-01-20T05:54:52.358Z,101201.06
2023-01-20T05:57:19.834Z,101206.56
2023-01-20T05:59:48.449Z,101216.78
2023-01-20T06:02:18.769Z,101206.44
2023-01-20T06:04:49.763Z,101205.97
2023-01-20T06:07:17.265Z,101209.91
2023-01-20T06:09:44.773Z,101207.41
2023-01-20T06:12:12.305Z,101214.16
2023-01-20T06:14:39.809Z,101204.78
2023-01-20T06:17:07.351Z,101212.53
2023-01-20T06:19:34.894Z,101206.66
2023-01-20T06:22:02.483Z,101212.66
2023-01-20T06:24:29.978Z,101216.28
2023-01-20T06:26:57.463Z,101215.09
2023-01-20T06:29:25.022Z,101212.25
2023-01-20T06:31:52.634Z,101210.66
2023-01-20T06:34:20.158Z,101206.44
2023-01-20T06:36:47.652Z,101205.69
2023-01-20T06:39:15.206Z,101200.56
2023-01-20T06:41:42.697Z,101207.28
2023-01-20T06:44:10.210Z,101217.66
2023-01-20T06:46:37.755Z,101215.28
2023-01-20T06:49:05.294Z,101211.03
2023-01-20T06:51:33.439Z,101209.28
2023-01-20T06:54:00.956Z,101202.44
2023-01-20T06:56:28.486Z,101204.19
2023-01-20T06:58:56.115Z,101203.94
2023-01-20T07:01:26.338Z,101213.28
2023-01-20T07:03:54.816Z,101210.72
2023-01-20T07:06:38.324Z,101219.28
2023-01-20T07:09:08.740Z,101184.84
2023-01-20T07:11:36.348Z,101210.50
2023-01-20T07:14:05.530Z,101224.09
2023-01-20T07:16:33.676Z,101233.53
2023-01-20T07:19:01.750Z,101221.69
2023-01-20T07:21:29.792Z,101220.72
2023-01-20T07:23:57.444Z,101228.69
2023-01-20T07:26:26.569Z,101228.75
2023-01-20T07:28:54.397Z,101238.91
2023-01-20T07:31:25.009Z,101238.84
2023-01-20T07:33:53.429Z,101232.91
2023-01-20T07:36:21.185Z,101235.16
2023-01-20T07:38:52.220Z,101234.34
2023-01-20T07:41:20.724Z,101242.53
2023-01-20T07:43:51.465Z,101238.22
2023-01-20T07:46:20.145Z,101244.13
2023-01-20T07:48:47.980Z,101255.88
2023-01-20T07:51:16.821Z,101262.63
2023-01-20T07:53:46.881Z,101259.41
2023-01-20T07:56:35.062Z,101266.50
2023-01-20T07:59:03.075Z,101268.50
2023-01-20T08:01:32.641Z,101259.78
2023-01-20T08:04:01.493Z,101265.03
2023-01-20T08:06:30.191Z,101268.38
2023-01-20T08:09:02.190Z,101275.13
2023-01-20T08:11:32.044Z,101270.91
2023-01-20T08:13:59.987Z,101272.03
2023-01-20T08:16:27.593Z,101271.91
2023-01-20T08:18:55.583Z,101263.41
2023-01-20T08:21:26.176Z,101267.03
2023-01-20T08:23:56.571Z,101260.41
2023-01-20T08:26:25.686Z,101274.59
2023-01-20T08:28:53.426Z,101273.78
2023-01-20T08:31:24.237Z,101268.66
2023-01-20T08:33:56.230Z,101268.84
2023-01-20T08:36:27.637Z,101273.34
2023-01-20T08:38:57.198Z,101285.56
2023-01-20T08:41:28.590Z,101295.13
2023-01-20T08:43:58.904Z,101292.72
2023-01-20T08:46:26.650Z,101292.03
2023-01-20T08:48:56.201Z,101312.84
2023-01-20T08:51:29.601Z,101300.91
2023-01-20T08:53:57.344Z,101306.84
2023-01-20T08:56:25.103Z,101309.41
2023-01-20T08:58:53.998Z,101313.91
2023-01-20T09:01:25.408Z,101312.91
2023-01-20T09:04:04.860Z,101310.22
2023-01-20T09:06:48.294Z,101319.28
2023-01-20T09:09:16.544Z,101311.84
2023-01-20T09:11:50.860Z,101322.16
2023-01-20T09:14:22.576Z,101315.22
2023-01-20T09:16:50.337Z,101329.66
2023-01-20T09:19:18.148Z,101321.16
2023-01-20T09:21:45.879Z,101323.16
2023-01-20T09:24:13.814Z,101325.03
2023-01-20T09:26:41.917Z,101314.94
2023-01-20T09:29:14.641Z,101338.28
2023-01-20T09:31:50.119Z,101326.00
2023-01-20T09:34:23.189Z,101332.78
2023-01-20T09:37:19.255Z,101338.00
2023-01-20T09:40:04.926Z,101338.38
2023-01-20T09:42:53.343Z,101339.88
2023-01-20T09:45:26.518Z,101344.38
2023-01-20T09:48:14.155Z,101350.31
2023-01-20T09:51:14.686Z,101347.44
2023-01-20T09:53:55.575Z,101354.34
2023-01-20T09:56:27.090Z,101354.50
2023-01-20T09:59:06.472Z,101356.84
2023-01-20T10:01:49.654Z,101357.88
2023-01-20T10:04:25.391Z,101359.75
2023-01-20T10:06:57.984Z,101359.47
2023-01-20T10:09:47.097Z,101373.09
2023-01-20T10:12:26.681Z,101370.63
2023-01-20T10:15:07.439Z,101376.47
2023-01-20T10:17:39.317Z,101373.72
2023-01-20T10:20:36.184Z,101370.81
2023-01-20T10:23:21.427Z,101371.47
2023-01-20T10:25:58.701Z,101371.56
2023-01-20T10:28:29.723Z,101380.19
2023-01-20T10:30:59.688Z,101370.94
2023-01-20T10:33:31.936Z,101367.59
2023-01-20T10:36:01.439Z,101371.22
2023-01-20T10:38:58.025Z,101363.78
2023-01-20T10:41:51.604Z,101361.13
2023-01-20T10:44:19.310Z,101362.25
2023-01-20T10:47:03.806Z,101359.75
2023-01-20T10:49:31.308Z,101359.63
2023-01-20T10:52:36.433Z,101363.25
2023-01-20T10:55:30.104Z,101350.06
2023-01-20T10:58:15.285Z,101348.34
2023-01-20T11:00:44.377Z,101348.19
2023-01-20T11:03:19.973Z,101346.00
2023-01-20T11:05:50.110Z,101360.69
2023-01-20T11:08:25.059Z,101367.03
2023-01-20T11:10:57.477Z,101374.16
2023-01-20T11:13:25.049Z,101380.34
2023-01-20T11:15:56.371Z,101380.94
2023-01-20T11:18:30.557Z,101385.63
2023-01-20T11:21:10.350Z,101389.41
2023-01-20T11:23:48.464Z,101401.94
2023-01-20T11:26:35.714Z,101390.47
2023-01-20T11:29:12.098Z,101396.91
2023-01-20T11:31:50.595Z,101393.78
2023-01-20T11:34:26.578Z,101391.66
2023-01-20T11:37:18.905Z,101393.91
2023-01-20T11:40:00.408Z,101386.41
2023-01-20T11:42:31.327Z,101382.97
2023-01-20T11:45:21.529Z,101387.50
2023-01-20T11:48:21.676Z,101397.47
2023-01-20T11:50:58.480Z,101396.91
2023-01-20T11:53:33.348Z,101393.22
2023-01-20T11:56:15.552Z,101380.16
2023-01-20T11:59:01.943Z,101376.78
2023-01-20T12:01:31.555Z,101376.91
2023-01-20T12:04:33.142Z,101383.06
2023-01-20T12:07:18.602Z,101379.53
2023-01-20T12:09:50.403Z,101377.56
2023-01-20T12:12:46.235Z,101375.16
2023-01-20T12:15:20.842Z,101377.66
2023-01-20T12:18:01.488Z,101377.72
2023-01-20T12:20:54.062Z,101376.25
2023-01-20T12:23:30.255Z,101380.34
2023-01-20T12:26:07.907Z,101387.06
2023-01-20T12:28:39.231Z,101376.41
2023-01-20T12:31:10.580Z,101384.03
2023-01-20T12:33:46.172Z,101381.94
2023-01-20T12:36:33.180Z,101384.50
2023-01-20T12:39:27.097Z,101390.47
2023-01-20T12:42:06.997Z,101390.31
2023-01-20T12:44:59.796Z,101399.47
2023-01-20T12:47:33.447Z,101397.03
2023-01-20T12:50:16.311Z,101400.56
2023-01-20T12:52:53.507Z,101395.16
2023-01-20T12:55:30.653Z,101402.31
2023-01-20T12:58:18.261Z,101257.94
2023-01-20T13:01:09.828Z,101413.25
2023-01-20T13:03:56.896Z,101409.09
2023-01-20T13:06:33.559Z,101407.19
2023-01-20T13:09:26.340Z,101409.88
2023-01-20T13:12:07.976Z,101412.84
2023-01-20T13:14:49.096Z,101410.03
2023-01-20T13:17:36.667Z,101424.50
2023-01-20T13:20:06.047Z,101420.66
2023-01-20T13:22:34.933Z,101436.31
2023-01-20T13:25:04.961Z,101430.38
2023-01-20T13:27:38.612Z,101438.88
2023-01-20T13:30:09.259Z,101436.47
2023-01-20T13:32:49.731Z,101437.81
2023-01-20T13:35:29.213Z,101437.75
2023-01-20T13:38:00.367Z,101431.34
2023-01-20T13:40:36.998Z,101447.63
2023-01-20T13:43:18.242Z,101441.56
2023-01-20T13:45:46.672Z,101439.53
2023-01-20T13:48:14.540Z,101440.06
2023-01-20T13:50:47.870Z,101447.88
2023-01-20T13:53:36.125Z,101454.34
2023-01-20T13:56:03.898Z,101460.72
2023-01-20T13:58:35.072Z,101470.44
2023-01-20T14:01:09.078Z,101485.59
2023-01-20T14:03:40.789Z,101477.16
2023-01-20T14:06:11.622Z,101483.22
2023-01-20T14:08:51.202Z,101485.22
2023-01-20T14:11:21.828Z,101488.97
2023-01-20T14:14:01.836Z,101492.97
2023-01-20T14:16:35.445Z,101494.69
2023-01-20T14:19:17.114Z,101505.72
2023-01-20T14:21:44.999Z,101505.22
2023-01-20T14:24:36.149Z,101512.75
2023-01-20T14:27:21.062Z,101509.50
2023-01-20T14:29:50.988Z,101521.38
2023-01-20T14:32:24.597Z,101527.19
2023-01-20T14:34:53.459Z,101529.09
2023-01-20T14:37:34.342Z,101539.06
2023-01-20T14:40:09.294Z,101542.06
2023-01-20T14:42:38.678Z,101552.56
2023-01-20T14:45:33.979Z,101555.25
2023-01-20T14:48:03.377Z,101557.97
2023-01-20T14:50:31.251Z,101573.56
2023-01-20T14:52:59.042Z,101571.78
2023-01-20T14:55:35.489Z,101590.53
2023-01-20T14:58:09.815Z,101586.69
2023-01-20T15:00:52.794Z,101603.41
2023-01-20T15:03:23.932Z,101606.50
2023-01-20T15:06:00.707Z,101612.47
2023-01-20T15:08:34.156Z,101622.75
2023-01-20T15:11:18.499Z,101629.94
2023-01-20T15:14:01.272Z,101633.59
2023-01-20T15:16:43.991Z,101645.91
2023-01-20T15:19:14.444Z,101654.66
2023-01-20T15:21:46.027Z,101651.84
2023-01-20T15:24:16.503Z,101662.88
2023-01-20T15:26:44.913Z,101654.53
2023-01-20T15:29:35.814Z,101669.31
2023-01-20T15:32:11.611Z,101678.69
2023-01-20T15:34:39.281Z,101676.66
2023-01-20T15:37:19.523Z,101679.88
2023-01-20T15:39:47.549Z,101684.53
2023-01-20T15:42:15.409Z,101692.19
2023-01-20T15:44:42.971Z,101703.28
2023-01-20T15:47:31.238Z,101713.34
2023-01-20T15:49:59.389Z,101722.13
2023-01-20T15:52:27.288Z,101726.34
2023-01-20T15:54:55.270Z,101735.19
2023-01-20T15:57:22.782Z,101739.25
2023-01-20T15:59:50.343Z,101741.97
2023-01-20T16:02:20.810Z,101750.59
2023-01-20T16:04:48.445Z,101754.63
2023-01-20T16:07:21.393Z,101762.63
2023-01-20T16:09:49.264Z,101764.38
2023-01-20T16:12:19.168Z,101781.78
2023-01-20T16:14:47.459Z,101789.91
2023-01-20T16:17:21.799Z,101786.63
2023-01-20T16:19:50.765Z,101797.03
2023-01-20T16:22:18.859Z,101798.28
2023-01-20T16:24:49.222Z,101810.50
2023-01-20T16:27:22.878Z,101815.97
2023-01-20T16:29:51.353Z,101820.91
2023-01-20T16:32:22.321Z,101835.25
2023-01-20T16:34:50.608Z,101840.38
2023-01-20T16:37:18.440Z,101838.78
2023-01-20T16:39:46.611Z,101842.59
2023-01-20T16:42:16.943Z,101855.63
2023-01-20T16:44:45.002Z,101849.47
2023-01-20T16:47:12.977Z,101858.69
2023-01-20T16:49:40.960Z,101873.63
2023-01-20T16:52:09.020Z,101866.84
2023-01-20T16:54:37.291Z,101871.31
2023-01-20T16:57:05.159Z,101880.91
2023-01-20T16:59:33.129Z,101882.72
2023-01-20T17:02:01.272Z,101899.34
2023-01-20T17:04:29.791Z,101906.91
2023-01-20T17:06:57.776Z,101894.31
2023-01-20T17:09:25.839Z,101910.56
2023-01-20T17:11:53.902Z,101927.72
2023-01-20T17:14:21.976Z,101920.84
2023-01-20T17:16:50.202Z,101932.69
2023-01-20T17:19:18.118Z,101936.72
2023-01-20T17:21:48.976Z,101948.78
2023-01-20T17:24:17.956Z,101953.84
2023-01-20T17:26:46.245Z,101965.22
2023-01-20T17:29:14.300Z,101963.78
2023-01-20T17:31:43.069Z,101966.25
2023-01-20T17:34:12.595Z,101971.38
2023-01-20T17:36:40.605Z,101981.41
2023-01-20T17:39:09.270Z,101988.16
2023-01-20T17:41:37.222Z,102000.81
2023-01-20T17:44:07.014Z,102005.13
2023-01-20T17:46:37.211Z,102018.66
2023-01-20T17:49:06.841Z,102022.59
2023-01-20T17:51:35.688Z,102031.09
2023-01-20T17:54:04.283Z,102027.56
2023-01-20T17:56:32.780Z,102034.94
2023-01-20T17:59:00.357Z,102043.97
2023-01-20T18:01:32.538Z,102051.25
2023-01-20T18:04:01.317Z,102047.72
2023-01-20T18:06:30.661Z,102059.59
2023-01-20T18:09:01.618Z,102055.91
2023-01-20T18:11:32.527Z,102073.66
2023-01-20T18:14:01.844Z,102081.19
2023-01-20T18:16:32.938Z,102086.03
2023-01-20T18:19:00.853Z,102088.00
2023-01-20T18:21:31.169Z,102095.75
2023-01-20T18:23:59.664Z,102101.03
2023-01-20T18:26:30.490Z,102098.53
2023-01-20T18:29:00.196Z,102116.63
2023-01-20T18:31:29.668Z,102122.47
2023-01-20T18:33:59.548Z,102135.09
2023-01-20T18:36:30.092Z,102131.75
2023-01-20T18:39:09.039Z,102137.75
2023-01-20T18:41:37.925Z,102144.03
2023-01-20T18:44:06.348Z,102149.94
2023-01-20T18:46:35.640Z,102148.97
2023-01-20T18:49:03.477Z,102162.41
2023-01-20T18:51:31.832Z,102168.44
2023-01-20T18:54:05.831Z,102169.63
2023-01-20T18:56:35.074Z,102179.16
2023-01-20T18:59:03.958Z,102180.97
2023-01-20T19:01:34.673Z,102190.13
2023-01-20T19:04:03.627Z,102202.16
2023-01-20T19:06:34.336Z,102193.81
2023-01-20T19:09:02.800Z,102211.50
2023-01-20T19:11:32.737Z,102213.44
2023-01-20T19:14:00.679Z,102211.81
2023-01-20T19:16:32.487Z,102210.59
2023-01-20T19:19:02.928Z,102226.38
2023-01-20T19:21:32.543Z,102227.00
2023-01-20T19:24:05.729Z,102230.53
2023-01-20T19:26:36.105Z,102240.78
2023-01-20T19:29:06.900Z,102244.16
2023-01-20T19:31:37.175Z,102249.16
2023-01-20T19:34:05.253Z,102264.88
2023-01-20T19:36:33.019Z,102255.94
2023-01-20T19:39:01.036Z,102265.31
2023-01-20T19:41:33.243Z,102262.66
2023-01-20T19:44:03.199Z,102275.47
2023-01-20T19:46:33.222Z,102281.19
2023-01-20T19:49:02.242Z,102292.09
2023-01-20T19:51:31.319Z,102287.53
2023-01-20T19:54:00.813Z,102293.00
2023-01-20T19:56:30.895Z,102284.34
2023-01-20T19:59:00.640Z,102301.09
2023-01-20T20:01:31.779Z,102312.22
2023-01-20T20:04:00.260Z,102318.03
2023-01-20T20:06:35.226Z,102316.28
2023-01-20T20:09:08.366Z,102328.88
2023-01-20T20:11:36.262Z,102328.22
2023-01-20T20:14:05.764Z,102344.97
2023-01-20T20:16:36.516Z,102332.78
2023-01-20T20:19:04.717Z,102346.69
2023-01-20T20:21:32.327Z,102347.47
2023-01-20T20:24:01.554Z,102360.34
2023-01-20T20:26:31.693Z,102361.72
2023-01-20T20:29:00.176Z,102367.03
2023-01-20T20:31:29.524Z,102359.97
2023-01-20T20:33:58.280Z,102362.91
2023-01-20T20:36:28.402Z,102380.53
2023-01-20T20:38:58.365Z,102369.03
2023-01-20T20:41:29.059Z,102379.47
2023-01-20T20:43:58.224Z,102377.91
2023-01-20T20:46:26.360Z,102386.34
2023-01-20T20:48:55.607Z,102383.00
2023-01-20T20:51:24.458Z,102403.47
2023-01-20T20:53:55.686Z,102400.72
2023-01-20T20:56:24.564Z,102406.63
2023-01-20T20:59:01.539Z,102405.25
2023-01-20T21:01:32.701Z,102410.34
2023-01-20T21:04:00.610Z,102426.50
2023-01-20T21:06:29.262Z,102418.22
2023-01-20T21:08:57.068Z,102428.84
2023-01-20T21:11:25.019Z,102428.63
2023-01-20T21:13:53.705Z,102448.41
2023-01-20T21:16:23.106Z,102444.19
2023-01-20T21:18:53.024Z,102461.09
2023-01-20T21:21:21.156Z,102445.38
2023-01-20T21:23:53.189Z,102461.09
2023-01-20T21:26:23.136Z,102457.78
2023-01-20T21:28:50.776Z,102464.44
2023-01-20T21:31:25.948Z,102469.56
2023-01-20T21:33:57.022Z,102441.00
2023-01-20T21:36:25.207Z,102464.94
2023-01-20T21:38:53.231Z,102476.91
2023-01-20T21:41:21.445Z,102481.38
2023-01-20T21:44:07.263Z,102475.16
2023-01-20T21:46:40.275Z,102489.13
2023-01-20T21:49:26.889Z,102498.28
2023-01-20T21:52:13.458Z,102492.94
2023-01-20T21:54:41.366Z,102504.56
2023-01-20T21:57:09.405Z,102508.06
2023-01-20T21:59:37.455Z,102523.72
2023-01-20T22:02:05.132Z,102531.69
2023-01-20T22:04:33.355Z,102528.53
2023-01-20T22:07:01.408Z,102529.13
2023-01-20T22:09:28.904Z,102528.75
2023-01-20T22:11:56.445Z,102532.00
2023-01-20T22:14:23.985Z,102538.00
2023-01-20T22:16:51.607Z,102541.91
2023-01-20T22:19:19.192Z,102547.13
2023-01-20T22:21:46.716Z,102555.44
2023-01-20T22:24:14.347Z,102552.13
2023-01-20T22:26:41.852Z,102566.31
2023-01-20T22:29:09.473Z,102567.13
2023-01-20T22:31:37.214Z,102588.38
2023-01-20T22:34:06.272Z,102576.16
2023-01-20T22:36:34.770Z,102586.06
2023-01-20T22:39:03.209Z,102594.41
2023-01-20T22:41:31.137Z,102592.44
2023-01-20T22:43:59.473Z,102592.22
2023-01-20T22:46:29.338Z,102600.69
2023-01-20T22:48:58.616Z,102608.81
2023-01-20T22:51:30.491Z,102613.34
2023-01-20T22:54:04.150Z,102618.25
2023-01-20T22:56:36.203Z,102625.84
2023-01-20T22:59:03.873Z,102625.41
2023-01-20T23:01:34.060Z,102633.63
2023-01-20T23:04:04.747Z,102636.41
2023-01-20T23:06:34.918Z,102635.41
2023-01-20T23:09:06.097Z,102647.19
2023-01-20T23:11:40.149Z,102654.06
2023-01-20T23:14:10.683Z,102634.53
2023-01-20T23:16:38.558Z,102645.41
2023-01-20T23:19:06.634Z,102648.19
2023-01-20T23:21:34.424Z,102644.75
2023-01-20T23:24:02.382Z,102654.19
2023-01-20T23:26:31.458Z,102651.22
2023-01-20T23:28:59.491Z,102668.09
2023-01-20T23:31:28.596Z,102661.66
2023-01-20T23:33:56.223Z,102672.66
2023-01-20T23:36:26.972Z,102664.97
2023-01-20T23:38:56.333Z,102678.13
2023-01-20T23:41:24.842Z,102669.13
2023-01-20T23:43:52.877Z,102680.13
2023-01-20T23:46:20.783Z,102680.75
2023-01-20T23:48:49.179Z,102690.53
2023-01-20T23:51:19.334Z,102693.22
2023-01-20T23:53:46.976Z,102695.22
2023-01-20T23:56:20.353Z,102706.13
2023-01-20T23:58:48.616Z,102703.00
